sensor_id;sensor_type;location;lat;lon;timestamp;P1;durP1;ratioP1;P2;durP2;ratioP2
48122;SDS011;33907;47.426;18.906;2023-05-19T00:00:58;9.77;;;6.40;;
48122;SDS011;33907;47.426;18.906;2023-05-19T00:03:27;11.07;;;6.25;;
48122;SDS011;33907;47.426;18.906;2023-05-19T00:05:54;9.02;;;5.87;;
48122;SDS011;33907;47.426;18.906;2023-05-19T00:08:23;10.55;;;6.12;;
48122;SDS011;33907;47.426;18.906;2023-05-19T00:10:51;7.10;;;4.15;;
48122;SDS011;33907;47.426;18.906;2023-05-19T00:13:18;6.72;;;3.95;;
48122;SDS011;33907;47.426;18.906;2023-05-19T00:15:47;8.43;;;4.68;;
48122;SDS011;33907;47.426;18.906;2023-05-19T00:18:16;6.55;;;4.30;;
48122;SDS011;33907;47.426;18.906;2023-05-19T00:20:43;7.62;;;4.22;;
48122;SDS011;33907;47.426;18.906;2023-05-19T00:23:11;7.12;;;4.40;;
48122;SDS011;33907;47.426;18.906;2023-05-19T00:25:38;7.03;;;3.80;;
48122;SDS011;33907;47.426;18.906;2023-05-19T00:28:06;6.87;;;3.50;;
48122;SDS011;33907;47.426;18.906;2023-05-19T00:30:33;7.53;;;4.07;;
48122;SDS011;33907;47.426;18.906;2023-05-19T00:33:01;10.75;;;3.85;;
48122;SDS011;33907;47.426;18.906;2023-05-19T00:35:28;6.00;;;3.85;;
48122;SDS011;33907;47.426;18.906;2023-05-19T00:37:57;6.82;;;3.42;;
48122;SDS011;33907;47.426;18.906;2023-05-19T00:40:24;6.15;;;3.67;;
48122;SDS011;33907;47.426;18.906;2023-05-19T00:42:53;6.22;;;3.58;;
48122;SDS011;33907;47.426;18.906;2023-05-19T00:45:20;9.38;;;3.80;;
48122;SDS011;33907;47.426;18.906;2023-05-19T00:47:48;7.37;;;3.80;;
48122;SDS011;33907;47.426;18.906;2023-05-19T00:50:16;7.22;;;3.70;;
48122;SDS011;33907;47.426;18.906;2023-05-19T00:52:43;8.23;;;3.85;;
48122;SDS011;33907;47.426;18.906;2023-05-19T00:55:11;6.62;;;3.62;;
48122;SDS011;33907;47.426;18.906;2023-05-19T00:57:40;6.57;;;3.97;;
48122;SDS011;33907;47.426;18.906;2023-05-19T01:00:08;7.32;;;4.10;;
48122;SDS011;33907;47.426;18.906;2023-05-19T01:02:37;7.18;;;3.95;;
48122;SDS011;33907;47.426;18.906;2023-05-19T01:05:07;10.02;;;4.20;;
48122;SDS011;33907;47.426;18.906;2023-05-19T01:07:34;5.68;;;3.60;;
48122;SDS011;33907;47.426;18.906;2023-05-19T01:10:03;6.87;;;4.05;;
48122;SDS011;33907;47.426;18.906;2023-05-19T01:12:30;5.65;;;3.87;;
48122;SDS011;33907;47.426;18.906;2023-05-19T01:14:58;7.43;;;4.15;;
48122;SDS011;33907;47.426;18.906;2023-05-19T01:17:30;7.15;;;3.62;;
48122;SDS011;33907;47.426;18.906;2023-05-19T01:20:26;10.55;;;3.87;;
48122;SDS011;33907;47.426;18.906;2023-05-19T01:31:10;7.30;;;4.25;;
48122;SDS011;33907;47.426;18.906;2023-05-19T01:33:40;7.32;;;3.87;;
48122;SDS011;33907;47.426;18.906;2023-05-19T01:36:07;10.00;;;4.15;;
48122;SDS011;33907;47.426;18.906;2023-05-19T01:38:37;11.30;;;4.07;;
48122;SDS011;33907;47.426;18.906;2023-05-19T01:41:05;7.90;;;4.03;;
48122;SDS011;33907;47.426;18.906;2023-05-19T01:43:33;6.22;;;4.00;;
48122;SDS011;33907;47.426;18.906;2023-05-19T01:46:01;7.25;;;4.05;;
48122;SDS011;33907;47.426;18.906;2023-05-19T01:48:29;8.10;;;3.87;;
48122;SDS011;33907;47.426;18.906;2023-05-19T01:50:57;6.45;;;3.97;;
48122;SDS011;33907;47.426;18.906;2023-05-19T01:53:25;7.85;;;4.37;;
48122;SDS011;33907;47.426;18.906;2023-05-19T01:55:54;7.12;;;4.03;;
48122;SDS011;33907;47.426;18.906;2023-05-19T02:03:57;8.13;;;3.83;;
48122;SDS011;33907;47.426;18.906;2023-05-19T02:14:38;8.02;;;4.40;;
48122;SDS011;33907;47.426;18.906;2023-05-19T02:17:08;8.27;;;4.40;;
48122;SDS011;33907;47.426;18.906;2023-05-19T02:19:37;8.93;;;4.75;;
48122;SDS011;33907;47.426;18.906;2023-05-19T02:22:07;8.45;;;4.05;;
48122;SDS011;33907;47.426;18.906;2023-05-19T02:24:34;7.45;;;4.82;;
48122;SDS011;33907;47.426;18.906;2023-05-19T02:27:03;7.25;;;4.50;;
48122;SDS011;33907;47.426;18.906;2023-05-19T02:29:33;7.20;;;4.60;;
48122;SDS011;33907;47.426;18.906;2023-05-19T02:32:00;7.50;;;4.78;;
48122;SDS011;33907;47.426;18.906;2023-05-19T02:34:28;7.57;;;4.72;;
48122;SDS011;33907;47.426;18.906;2023-05-19T02:36:56;9.02;;;4.87;;
48122;SDS011;33907;47.426;18.906;2023-05-19T02:39:24;15.02;;;5.05;;
48122;SDS011;33907;47.426;18.906;2023-05-19T02:41:52;7.78;;;4.82;;
48122;SDS011;33907;47.426;18.906;2023-05-19T02:44:20;9.18;;;4.75;;
48122;SDS011;33907;47.426;18.906;2023-05-19T02:46:47;8.98;;;4.80;;
48122;SDS011;33907;47.426;18.906;2023-05-19T02:49:15;7.20;;;4.90;;
48122;SDS011;33907;47.426;18.906;2023-05-19T02:51:42;8.32;;;4.93;;
48122;SDS011;33907;47.426;18.906;2023-05-19T02:54:10;9.15;;;5.53;;
48122;SDS011;33907;47.426;18.906;2023-05-19T02:56:38;9.13;;;5.65;;
48122;SDS011;33907;47.426;18.906;2023-05-19T02:59:05;9.20;;;5.22;;
48122;SDS011;33907;47.426;18.906;2023-05-19T03:01:33;8.55;;;5.37;;
48122;SDS011;33907;47.426;18.906;2023-05-19T03:04:00;8.18;;;6.07;;
48122;SDS011;33907;47.426;18.906;2023-05-19T03:06:28;7.65;;;5.45;;
48122;SDS011;33907;47.426;18.906;2023-05-19T03:08:58;9.48;;;5.45;;
48122;SDS011;33907;47.426;18.906;2023-05-19T03:11:26;7.57;;;5.20;;
48122;SDS011;33907;47.426;18.906;2023-05-19T03:13:53;9.15;;;6.37;;
48122;SDS011;33907;47.426;18.906;2023-05-19T03:16:21;11.80;;;7.10;;
48122;SDS011;33907;47.426;18.906;2023-05-19T03:18:49;12.23;;;6.95;;
48122;SDS011;33907;47.426;18.906;2023-05-19T03:21:17;10.88;;;6.87;;
48122;SDS011;33907;47.426;18.906;2023-05-19T03:23:44;9.63;;;6.60;;
48122;SDS011;33907;47.426;18.906;2023-05-19T03:26:13;10.00;;;6.05;;
48122;SDS011;33907;47.426;18.906;2023-05-19T03:28:41;11.25;;;6.32;;
48122;SDS011;33907;47.426;18.906;2023-05-19T03:31:08;10.35;;;5.97;;
48122;SDS011;33907;47.426;18.906;2023-05-19T03:33:36;9.30;;;5.80;;
48122;SDS011;33907;47.426;18.906;2023-05-19T03:36:04;10.55;;;5.37;;
48122;SDS011;33907;47.426;18.906;2023-05-19T03:38:32;12.02;;;5.87;;
48122;SDS011;33907;47.426;18.906;2023-05-19T03:41:00;9.63;;;5.55;;
48122;SDS011;33907;47.426;18.906;2023-05-19T03:43:27;7.82;;;5.55;;
48122;SDS011;33907;47.426;18.906;2023-05-19T03:45:55;9.75;;;4.80;;
48122;SDS011;33907;47.426;18.906;2023-05-19T03:48:24;10.38;;;6.43;;
48122;SDS011;33907;47.426;18.906;2023-05-19T03:51:01;10.23;;;6.43;;
48122;SDS011;33907;47.426;18.906;2023-05-19T03:53:30;7.55;;;5.32;;
48122;SDS011;33907;47.426;18.906;2023-05-19T03:55:58;11.20;;;6.00;;
48122;SDS011;33907;47.426;18.906;2023-05-19T03:58:26;8.82;;;5.70;;
48122;SDS011;33907;47.426;18.906;2023-05-19T04:00:56;7.68;;;5.68;;
48122;SDS011;33907;47.426;18.906;2023-05-19T04:03:24;11.60;;;6.10;;
48122;SDS011;33907;47.426;18.906;2023-05-19T04:05:54;10.20;;;6.05;;
48122;SDS011;33907;47.426;18.906;2023-05-19T04:08:22;7.80;;;5.40;;
48122;SDS011;33907;47.426;18.906;2023-05-19T04:10:50;9.50;;;5.78;;
48122;SDS011;33907;47.426;18.906;2023-05-19T04:13:17;14.10;;;6.25;;
48122;SDS011;33907;47.426;18.906;2023-05-19T04:15:45;11.98;;;6.25;;
48122;SDS011;33907;47.426;18.906;2023-05-19T04:18:12;11.60;;;7.45;;
48122;SDS011;33907;47.426;18.906;2023-05-19T04:20:40;9.70;;;6.90;;
48122;SDS011;33907;47.426;18.906;2023-05-19T04:23:08;9.63;;;7.32;;
48122;SDS011;33907;47.426;18.906;2023-05-19T04:25:36;9.77;;;6.55;;
48122;SDS011;33907;47.426;18.906;2023-05-19T04:28:04;9.32;;;6.65;;
48122;SDS011;33907;47.426;18.906;2023-05-19T04:30:32;13.18;;;6.90;;
48122;SDS011;33907;47.426;18.906;2023-05-19T04:33:01;9.10;;;6.55;;
48122;SDS011;33907;47.426;18.906;2023-05-19T04:35:31;10.90;;;7.35;;
48122;SDS011;33907;47.426;18.906;2023-05-19T04:37:59;12.55;;;7.22;;
48122;SDS011;33907;47.426;18.906;2023-05-19T04:40:28;11.40;;;7.03;;
48122;SDS011;33907;47.426;18.906;2023-05-19T04:42:57;10.77;;;6.62;;
48122;SDS011;33907;47.426;18.906;2023-05-19T04:45:28;9.93;;;6.97;;
48122;SDS011;33907;47.426;18.906;2023-05-19T04:47:56;10.30;;;7.28;;
48122;SDS011;33907;47.426;18.906;2023-05-19T04:50:24;11.57;;;6.65;;
48122;SDS011;33907;47.426;18.906;2023-05-19T04:52:52;10.73;;;7.03;;
48122;SDS011;33907;47.426;18.906;2023-05-19T04:55:20;10.75;;;7.30;;
48122;SDS011;33907;47.426;18.906;2023-05-19T04:57:48;11.45;;;8.15;;
48122;SDS011;33907;47.426;18.906;2023-05-19T05:00:16;9.90;;;7.28;;
48122;SDS011;33907;47.426;18.906;2023-05-19T05:02:45;9.82;;;6.45;;
48122;SDS011;33907;47.426;18.906;2023-05-19T05:05:16;11.55;;;6.80;;
48122;SDS011;33907;47.426;18.906;2023-05-19T05:07:44;14.38;;;7.25;;
48122;SDS011;33907;47.426;18.906;2023-05-19T05:10:12;13.27;;;8.20;;
48122;SDS011;33907;47.426;18.906;2023-05-19T05:12:40;11.12;;;6.90;;
48122;SDS011;33907;47.426;18.906;2023-05-19T05:15:08;11.23;;;5.87;;
48122;SDS011;33907;47.426;18.906;2023-05-19T05:17:36;12.25;;;6.55;;
48122;SDS011;33907;47.426;18.906;2023-05-19T05:20:04;11.05;;;6.57;;
48122;SDS011;33907;47.426;18.906;2023-05-19T05:22:33;8.98;;;5.80;;
48122;SDS011;33907;47.426;18.906;2023-05-19T05:25:01;11.43;;;5.87;;
48122;SDS011;33907;47.426;18.906;2023-05-19T05:27:30;9.25;;;6.50;;
48122;SDS011;33907;47.426;18.906;2023-05-19T05:29:58;9.43;;;6.30;;
48122;SDS011;33907;47.426;18.906;2023-05-19T05:32:26;8.88;;;5.60;;
48122;SDS011;33907;47.426;18.906;2023-05-19T05:34:55;12.20;;;7.00;;
48122;SDS011;33907;47.426;18.906;2023-05-19T05:37:23;9.77;;;6.12;;
48122;SDS011;33907;47.426;18.906;2023-05-19T05:39:54;10.43;;;6.45;;
48122;SDS011;33907;47.426;18.906;2023-05-19T05:42:21;9.73;;;6.78;;
48122;SDS011;33907;47.426;18.906;2023-05-19T05:44:51;14.68;;;6.57;;
48122;SDS011;33907;47.426;18.906;2023-05-19T05:47:20;11.48;;;6.62;;
48122;SDS011;33907;47.426;18.906;2023-05-19T05:49:48;10.50;;;6.70;;
48122;SDS011;33907;47.426;18.906;2023-05-19T05:52:19;10.13;;;6.20;;
48122;SDS011;33907;47.426;18.906;2023-05-19T05:54:48;12.50;;;6.65;;
48122;SDS011;33907;47.426;18.906;2023-05-19T05:57:16;11.77;;;6.35;;
48122;SDS011;33907;47.426;18.906;2023-05-19T05:59:44;10.63;;;5.50;;
48122;SDS011;33907;47.426;18.906;2023-05-19T06:02:13;8.20;;;5.20;;
48122;SDS011;33907;47.426;18.906;2023-05-19T06:04:41;8.00;;;5.85;;
48122;SDS011;33907;47.426;18.906;2023-05-19T06:07:10;8.98;;;6.20;;
48122;SDS011;33907;47.426;18.906;2023-05-19T06:09:38;11.43;;;6.47;;
48122;SDS011;33907;47.426;18.906;2023-05-19T06:12:06;8.07;;;5.78;;
48122;SDS011;33907;47.426;18.906;2023-05-19T06:14:34;9.13;;;5.87;;
48122;SDS011;33907;47.426;18.906;2023-05-19T06:17:03;9.38;;;6.68;;
48122;SDS011;33907;47.426;18.906;2023-05-19T06:19:33;8.25;;;5.93;;
48122;SDS011;33907;47.426;18.906;2023-05-19T06:22:01;7.90;;;5.57;;
48122;SDS011;33907;47.426;18.906;2023-05-19T06:24:29;11.95;;;6.10;;
48122;SDS011;33907;47.426;18.906;2023-05-19T06:26:57;9.45;;;6.47;;
48122;SDS011;33907;47.426;18.906;2023-05-19T06:29:27;9.35;;;5.78;;
48122;SDS011;33907;47.426;18.906;2023-05-19T06:31:55;10.95;;;5.93;;
48122;SDS011;33907;47.426;18.906;2023-05-19T06:34:24;7.93;;;5.60;;
48122;SDS011;33907;47.426;18.906;2023-05-19T06:36:52;7.93;;;5.37;;
48122;SDS011;33907;47.426;18.906;2023-05-19T06:39:20;8.95;;;5.12;;
48122;SDS011;33907;47.426;18.906;2023-05-19T06:41:49;8.80;;;5.53;;
48122;SDS011;33907;47.426;18.906;2023-05-19T06:44:22;7.78;;;5.62;;
48122;SDS011;33907;47.426;18.906;2023-05-19T06:46:50;7.55;;;4.47;;
48122;SDS011;33907;47.426;18.906;2023-05-19T06:49:18;10.80;;;5.10;;
48122;SDS011;33907;47.426;18.906;2023-05-19T06:51:47;7.62;;;5.32;;
48122;SDS011;33907;47.426;18.906;2023-05-19T06:54:15;10.25;;;5.12;;
48122;SDS011;33907;47.426;18.906;2023-05-19T06:56:43;8.75;;;5.12;;
48122;SDS011;33907;47.426;18.906;2023-05-19T06:59:11;6.68;;;4.80;;
48122;SDS011;33907;47.426;18.906;2023-05-19T07:01:38;9.05;;;5.85;;
48122;SDS011;33907;47.426;18.906;2023-05-19T07:04:06;9.00;;;5.12;;
48122;SDS011;33907;47.426;18.906;2023-05-19T07:06:33;11.55;;;5.22;;
48122;SDS011;33907;47.426;18.906;2023-05-19T07:09:01;8.00;;;4.60;;
48122;SDS011;33907;47.426;18.906;2023-05-19T07:11:31;8.40;;;5.05;;
48122;SDS011;33907;47.426;18.906;2023-05-19T07:13:59;9.20;;;5.10;;
48122;SDS011;33907;47.426;18.906;2023-05-19T07:16:27;12.77;;;5.22;;
48122;SDS011;33907;47.426;18.906;2023-05-19T07:18:54;10.52;;;6.22;;
48122;SDS011;33907;47.426;18.906;2023-05-19T07:21:22;8.38;;;5.07;;
48122;SDS011;33907;47.426;18.906;2023-05-19T07:23:50;7.10;;;4.68;;
48122;SDS011;33907;47.426;18.906;2023-05-19T07:26:18;6.25;;;4.18;;
48122;SDS011;33907;47.426;18.906;2023-05-19T07:28:45;7.20;;;4.45;;
48122;SDS011;33907;47.426;18.906;2023-05-19T07:31:13;7.10;;;4.72;;
48122;SDS011;33907;47.426;18.906;2023-05-19T07:33:40;10.32;;;4.97;;
48122;SDS011;33907;47.426;18.906;2023-05-19T07:36:08;7.28;;;4.75;;
48122;SDS011;33907;47.426;18.906;2023-05-19T07:38:35;7.87;;;4.40;;
48122;SDS011;33907;47.426;18.906;2023-05-19T07:41:03;10.00;;;5.28;;
48122;SDS011;33907;47.426;18.906;2023-05-19T07:43:30;8.68;;;4.62;;
48122;SDS011;33907;47.426;18.906;2023-05-19T07:45:58;6.97;;;4.72;;
48122;SDS011;33907;47.426;18.906;2023-05-19T07:48:26;8.55;;;5.15;;
48122;SDS011;33907;47.426;18.906;2023-05-19T07:50:54;9.20;;;4.40;;
48122;SDS011;33907;47.426;18.906;2023-05-19T07:53:22;11.43;;;5.90;;
48122;SDS011;33907;47.426;18.906;2023-05-19T07:55:52;10.25;;;5.47;;
48122;SDS011;33907;47.426;18.906;2023-05-19T07:58:22;7.90;;;5.30;;
48122;SDS011;33907;47.426;18.906;2023-05-19T08:00:50;9.30;;;5.40;;
48122;SDS011;33907;47.426;18.906;2023-05-19T08:03:17;10.65;;;5.07;;
48122;SDS011;33907;47.426;18.906;2023-05-19T08:05:45;12.73;;;5.40;;
48122;SDS011;33907;47.426;18.906;2023-05-19T08:08:13;7.18;;;4.85;;
48122;SDS011;33907;47.426;18.906;2023-05-19T08:10:43;15.13;;;5.70;;
48122;SDS011;33907;47.426;18.906;2023-05-19T08:13:10;8.57;;;5.25;;
48122;SDS011;33907;47.426;18.906;2023-05-19T08:15:38;7.95;;;4.82;;
48122;SDS011;33907;47.426;18.906;2023-05-19T08:18:06;9.38;;;4.43;;
48122;SDS011;33907;47.426;18.906;2023-05-19T08:20:33;8.05;;;4.35;;
48122;SDS011;33907;47.426;18.906;2023-05-19T08:23:01;7.15;;;3.80;;
48122;SDS011;33907;47.426;18.906;2023-05-19T08:25:29;8.52;;;4.37;;
48122;SDS011;33907;47.426;18.906;2023-05-19T08:27:56;8.02;;;4.15;;
48122;SDS011;33907;47.426;18.906;2023-05-19T08:30:23;7.95;;;5.18;;
48122;SDS011;33907;47.426;18.906;2023-05-19T08:48:53;9.65;;;4.20;;
48122;SDS011;33907;47.426;18.906;2023-05-19T08:51:56;6.85;;;4.60;;
48122;SDS011;33907;47.426;18.906;2023-05-19T08:54:52;6.97;;;4.75;;
48122;SDS011;33907;47.426;18.906;2023-05-19T08:57:21;6.93;;;4.10;;
48122;SDS011;33907;47.426;18.906;2023-05-19T08:59:49;6.12;;;4.20;;
48122;SDS011;33907;47.426;18.906;2023-05-19T09:02:17;9.82;;;5.57;;
48122;SDS011;33907;47.426;18.906;2023-05-19T09:04:46;7.95;;;4.78;;
48122;SDS011;33907;47.426;18.906;2023-05-19T09:07:14;7.00;;;5.12;;
48122;SDS011;33907;47.426;18.906;2023-05-19T09:09:41;8.18;;;4.50;;
48122;SDS011;33907;47.426;18.906;2023-05-19T09:12:10;8.77;;;4.47;;
48122;SDS011;33907;47.426;18.906;2023-05-19T09:14:38;7.85;;;4.25;;
48122;SDS011;33907;47.426;18.906;2023-05-19T09:17:05;7.20;;;4.15;;
48122;SDS011;33907;47.426;18.906;2023-05-19T09:19:33;10.35;;;4.85;;
48122;SDS011;33907;47.426;18.906;2023-05-19T09:22:01;7.28;;;4.62;;
48122;SDS011;33907;47.426;18.906;2023-05-19T09:24:32;7.35;;;4.50;;
48122;SDS011;33907;47.426;18.906;2023-05-19T09:27:01;6.85;;;4.00;;
48122;SDS011;33907;47.426;18.906;2023-05-19T09:29:28;8.30;;;4.45;;
48122;SDS011;33907;47.426;18.906;2023-05-19T09:32:01;7.75;;;4.53;;
48122;SDS011;33907;47.426;18.906;2023-05-19T09:34:31;8.18;;;4.25;;
48122;SDS011;33907;47.426;18.906;2023-05-19T09:36:59;6.97;;;4.80;;
48122;SDS011;33907;47.426;18.906;2023-05-19T09:39:26;10.10;;;4.10;;
48122;SDS011;33907;47.426;18.906;2023-05-19T09:41:55;7.12;;;4.45;;
48122;SDS011;33907;47.426;18.906;2023-05-19T09:44:25;7.55;;;4.47;;
48122;SDS011;33907;47.426;18.906;2023-05-19T09:47:02;6.30;;;4.25;;
48122;SDS011;33907;47.426;18.906;2023-05-19T09:49:29;6.60;;;4.18;;
48122;SDS011;33907;47.426;18.906;2023-05-19T09:52:00;8.80;;;4.78;;
48122;SDS011;33907;47.426;18.906;2023-05-19T09:54:29;8.10;;;4.30;;
48122;SDS011;33907;47.426;18.906;2023-05-19T09:57:00;6.60;;;4.50;;
48122;SDS011;33907;47.426;18.906;2023-05-19T09:59:30;6.40;;;3.95;;
48122;SDS011;33907;47.426;18.906;2023-05-19T10:02:00;8.75;;;4.50;;
48122;SDS011;33907;47.426;18.906;2023-05-19T10:04:29;6.20;;;3.87;;
48122;SDS011;33907;47.426;18.906;2023-05-19T10:06:57;6.40;;;4.05;;
48122;SDS011;33907;47.426;18.906;2023-05-19T10:09:31;6.68;;;4.40;;
48122;SDS011;33907;47.426;18.906;2023-05-19T10:11:59;6.90;;;4.97;;
48122;SDS011;33907;47.426;18.906;2023-05-19T10:14:35;6.55;;;4.40;;
48122;SDS011;33907;47.426;18.906;2023-05-19T10:17:03;7.78;;;4.10;;
48122;SDS011;33907;47.426;18.906;2023-05-19T10:19:30;8.27;;;4.45;;
48122;SDS011;33907;47.426;18.906;2023-05-19T10:21:58;6.50;;;4.18;;
48122;SDS011;33907;47.426;18.906;2023-05-19T10:24:26;5.85;;;3.70;;
48122;SDS011;33907;47.426;18.906;2023-05-19T10:26:57;7.50;;;3.80;;
48122;SDS011;33907;47.426;18.906;2023-05-19T10:29:29;6.80;;;4.07;;
48122;SDS011;33907;47.426;18.906;2023-05-19T10:31:59;6.47;;;4.57;;
48122;SDS011;33907;47.426;18.906;2023-05-19T10:43:33;6.43;;;4.05;;
48122;SDS011;33907;47.426;18.906;2023-05-19T10:46:05;5.70;;;3.95;;
48122;SDS011;33907;47.426;18.906;2023-05-19T10:48:33;6.82;;;4.47;;
48122;SDS011;33907;47.426;18.906;2023-05-19T10:51:04;5.18;;;3.60;;
48122;SDS011;33907;47.426;18.906;2023-05-19T10:53:42;5.82;;;3.78;;
48122;SDS011;33907;47.426;18.906;2023-05-19T10:56:26;9.13;;;4.97;;
48122;SDS011;33907;47.426;18.906;2023-05-19T10:59:01;7.10;;;4.62;;
48122;SDS011;33907;47.426;18.906;2023-05-19T11:01:33;10.57;;;5.10;;
48122;SDS011;33907;47.426;18.906;2023-05-19T11:04:05;8.95;;;5.43;;
48122;SDS011;33907;47.426;18.906;2023-05-19T11:06:35;9.05;;;5.68;;
48122;SDS011;33907;47.426;18.906;2023-05-19T11:11:45;11.20;;;5.95;;
48122;SDS011;33907;47.426;18.906;2023-05-19T11:14:16;9.27;;;6.12;;
48122;SDS011;33907;47.426;18.906;2023-05-19T11:16:48;13.05;;;6.85;;
48122;SDS011;33907;47.426;18.906;2023-05-19T11:19:27;10.18;;;6.22;;
48122;SDS011;33907;47.426;18.906;2023-05-19T11:21:56;11.32;;;6.20;;
48122;SDS011;33907;47.426;18.906;2023-05-19T11:24:44;8.35;;;6.03;;
48122;SDS011;33907;47.426;18.906;2023-05-19T11:32:35;11.17;;;6.70;;
48122;SDS011;33907;47.426;18.906;2023-05-19T11:35:07;9.45;;;6.20;;
48122;SDS011;33907;47.426;18.906;2023-05-19T11:37:36;8.15;;;6.15;;
48122;SDS011;33907;47.426;18.906;2023-05-19T11:40:03;9.15;;;5.85;;
48122;SDS011;33907;47.426;18.906;2023-05-19T11:42:35;10.20;;;5.70;;
48122;SDS011;33907;47.426;18.906;2023-05-19T11:45:03;7.25;;;5.18;;
48122;SDS011;33907;47.426;18.906;2023-05-19T11:47:32;9.10;;;6.12;;
48122;SDS011;33907;47.426;18.906;2023-05-19T11:50:29;8.23;;;5.93;;
48122;SDS011;33907;47.426;18.906;2023-05-19T11:53:17;10.50;;;5.87;;
48122;SDS011;33907;47.426;18.906;2023-05-19T11:55:46;9.43;;;6.18;;
48122;SDS011;33907;47.426;18.906;2023-05-19T11:58:18;9.73;;;5.20;;
48122;SDS011;33907;47.426;18.906;2023-05-19T12:00:52;9.98;;;5.45;;
48122;SDS011;33907;47.426;18.906;2023-05-19T12:03:21;11.10;;;6.68;;
48122;SDS011;33907;47.426;18.906;2023-05-19T12:08:34;10.25;;;5.65;;
48122;SDS011;33907;47.426;18.906;2023-05-19T12:11:03;10.18;;;5.55;;
48122;SDS011;33907;47.426;18.906;2023-05-19T12:16:05;8.50;;;6.43;;
48122;SDS011;33907;47.426;18.906;2023-05-19T12:18:37;9.02;;;5.68;;
48122;SDS011;33907;47.426;18.906;2023-05-19T12:21:04;10.95;;;6.32;;
48122;SDS011;33907;47.426;18.906;2023-05-19T12:23:32;8.90;;;5.28;;
48122;SDS011;33907;47.426;18.906;2023-05-19T12:26:00;8.57;;;4.95;;
48122;SDS011;33907;47.426;18.906;2023-05-19T12:28:29;9.30;;;5.15;;
48122;SDS011;33907;47.426;18.906;2023-05-19T12:30:57;12.00;;;5.12;;
48122;SDS011;33907;47.426;18.906;2023-05-19T12:33:25;7.18;;;4.65;;
48122;SDS011;33907;47.426;18.906;2023-05-19T12:35:52;6.70;;;4.43;;
48122;SDS011;33907;47.426;18.906;2023-05-19T12:38:21;9.88;;;4.72;;
48122;SDS011;33907;47.426;18.906;2023-05-19T12:41:03;9.20;;;4.65;;
48122;SDS011;33907;47.426;18.906;2023-05-19T12:43:34;10.02;;;4.50;;
48122;SDS011;33907;47.426;18.906;2023-05-19T12:46:10;9.00;;;4.37;;
48122;SDS011;33907;47.426;18.906;2023-05-19T12:48:42;9.13;;;6.07;;
48122;SDS011;33907;47.426;18.906;2023-05-19T12:56:19;8.95;;;5.00;;
48122;SDS011;33907;47.426;18.906;2023-05-19T12:58:51;6.70;;;4.70;;
48122;SDS011;33907;47.426;18.906;2023-05-19T13:01:21;7.30;;;4.50;;
48122;SDS011;33907;47.426;18.906;2023-05-19T13:03:49;10.15;;;4.95;;
48122;SDS011;33907;47.426;18.906;2023-05-19T13:06:20;8.02;;;4.25;;
48122;SDS011;33907;47.426;18.906;2023-05-19T13:08:48;10.52;;;4.72;;
48122;SDS011;33907;47.426;18.906;2023-05-19T13:11:15;6.68;;;4.20;;
48122;SDS011;33907;47.426;18.906;2023-05-19T13:13:43;8.95;;;4.40;;
48122;SDS011;33907;47.426;18.906;2023-05-19T13:16:11;8.50;;;4.68;;
48122;SDS011;33907;47.426;18.906;2023-05-19T13:18:39;8.48;;;3.85;;
48122;SDS011;33907;47.426;18.906;2023-05-19T13:21:10;7.75;;;4.22;;
48122;SDS011;33907;47.426;18.906;2023-05-19T13:23:38;7.75;;;4.03;;
48122;SDS011;33907;47.426;18.906;2023-05-19T13:26:06;9.68;;;3.90;;
48122;SDS011;33907;47.426;18.906;2023-05-19T13:28:35;8.02;;;3.85;;
48122;SDS011;33907;47.426;18.906;2023-05-19T13:31:02;8.15;;;3.58;;
48122;SDS011;33907;47.426;18.906;2023-05-19T13:33:30;6.18;;;3.97;;
48122;SDS011;33907;47.426;18.906;2023-05-19T13:35:58;9.63;;;4.18;;
48122;SDS011;33907;47.426;18.906;2023-05-19T13:38:26;8.20;;;4.47;;
48122;SDS011;33907;47.426;18.906;2023-05-19T13:40:54;7.43;;;4.15;;
48122;SDS011;33907;47.426;18.906;2023-05-19T13:43:21;7.93;;;4.20;;
48122;SDS011;33907;47.426;18.906;2023-05-19T13:45:49;8.25;;;4.05;;
48122;SDS011;33907;47.426;18.906;2023-05-19T13:48:16;7.55;;;4.25;;
48122;SDS011;33907;47.426;18.906;2023-05-19T13:50:44;7.85;;;3.70;;
48122;SDS011;33907;47.426;18.906;2023-05-19T13:53:12;8.13;;;3.87;;
48122;SDS011;33907;47.426;18.906;2023-05-19T13:55:39;6.37;;;4.00;;
48122;SDS011;33907;47.426;18.906;2023-05-19T13:58:07;10.27;;;4.00;;
48122;SDS011;33907;47.426;18.906;2023-05-19T14:00:37;6.93;;;3.45;;
48122;SDS011;33907;47.426;18.906;2023-05-19T14:03:05;7.65;;;4.07;;
48122;SDS011;33907;47.426;18.906;2023-05-19T14:05:33;9.35;;;4.65;;
48122;SDS011;33907;47.426;18.906;2023-05-19T14:08:00;6.43;;;3.47;;
48122;SDS011;33907;47.426;18.906;2023-05-19T14:10:29;7.18;;;3.95;;
48122;SDS011;33907;47.426;18.906;2023-05-19T14:12:57;7.70;;;3.67;;
48122;SDS011;33907;47.426;18.906;2023-05-19T14:15:29;6.57;;;3.67;;
48122;SDS011;33907;47.426;18.906;2023-05-19T14:17:58;6.25;;;3.50;;
48122;SDS011;33907;47.426;18.906;2023-05-19T14:20:25;7.53;;;3.62;;
48122;SDS011;33907;47.426;18.906;2023-05-19T14:22:55;6.40;;;3.83;;
48122;SDS011;33907;47.426;18.906;2023-05-19T14:25:23;7.87;;;3.37;;
48122;SDS011;33907;47.426;18.906;2023-05-19T14:27:50;5.37;;;3.30;;
48122;SDS011;33907;47.426;18.906;2023-05-19T14:30:18;8.32;;;3.65;;
48122;SDS011;33907;47.426;18.906;2023-05-19T14:32:45;6.65;;;3.30;;
48122;SDS011;33907;47.426;18.906;2023-05-19T14:35:13;7.80;;;3.40;;
48122;SDS011;33907;47.426;18.906;2023-05-19T14:37:41;7.68;;;3.37;;
48122;SDS011;33907;47.426;18.906;2023-05-19T14:40:08;6.53;;;3.37;;
48122;SDS011;33907;47.426;18.906;2023-05-19T14:42:36;6.80;;;3.00;;
48122;SDS011;33907;47.426;18.906;2023-05-19T14:45:04;6.07;;;3.05;;
48122;SDS011;33907;47.426;18.906;2023-05-19T14:47:32;8.43;;;3.70;;
48122;SDS011;33907;47.426;18.906;2023-05-19T14:49:59;7.62;;;3.50;;
48122;SDS011;33907;47.426;18.906;2023-05-19T14:52:27;6.22;;;3.72;;
48122;SDS011;33907;47.426;18.906;2023-05-19T14:54:55;6.78;;;3.47;;
48122;SDS011;33907;47.426;18.906;2023-05-19T14:57:23;9.13;;;3.58;;
48122;SDS011;33907;47.426;18.906;2023-05-19T14:59:50;7.80;;;3.55;;
48122;SDS011;33907;47.426;18.906;2023-05-19T15:02:18;8.38;;;2.97;;
48122;SDS011;33907;47.426;18.906;2023-05-19T15:04:45;5.15;;;2.83;;
48122;SDS011;33907;47.426;18.906;2023-05-19T15:07:13;8.80;;;3.12;;
48122;SDS011;33907;47.426;18.906;2023-05-19T15:09:40;6.70;;;2.65;;
48122;SDS011;33907;47.426;18.906;2023-05-19T15:12:08;9.48;;;3.35;;
48122;SDS011;33907;47.426;18.906;2023-05-19T15:14:36;10.23;;;3.37;;
48122;SDS011;33907;47.426;18.906;2023-05-19T15:17:03;6.55;;;3.45;;
48122;SDS011;33907;47.426;18.906;2023-05-19T15:19:31;7.12;;;3.62;;
48122;SDS011;33907;47.426;18.906;2023-05-19T15:21:59;8.82;;;3.65;;
48122;SDS011;33907;47.426;18.906;2023-05-19T15:24:27;8.50;;;3.30;;
48122;SDS011;33907;47.426;18.906;2023-05-19T15:26:55;8.57;;;3.30;;
48122;SDS011;33907;47.426;18.906;2023-05-19T15:29:26;10.95;;;3.72;;
48122;SDS011;33907;47.426;18.906;2023-05-19T15:31:58;15.40;;;5.47;;
48122;SDS011;33907;47.426;18.906;2023-05-19T15:34:26;8.15;;;3.97;;
48122;SDS011;33907;47.426;18.906;2023-05-19T15:36:53;7.78;;;3.92;;
48122;SDS011;33907;47.426;18.906;2023-05-19T15:39:21;33.60;;;9.35;;
48122;SDS011;33907;47.426;18.906;2023-05-19T15:41:49;33.65;;;8.30;;
48122;SDS011;33907;47.426;18.906;2023-05-19T15:44:18;12.05;;;3.92;;
48122;SDS011;33907;47.426;18.906;2023-05-19T15:46:46;7.87;;;3.30;;